createdAt,value
2023-03-13T00:00:06.634Z,17.97
2023-03-13T00:00:28.518Z,17.95
2023-03-13T00:00:52.226Z,17.98
2023-03-13T00:01:19.701Z,17.95
2023-03-13T00:01:42.908Z,17.93
2023-03-13T00:02:05.743Z,17.95
2023-03-13T00:02:27.685Z,18.02
2023-03-13T00:02:50.570Z,18.01
2023-03-13T00:03:12.240Z,17.93
2023-03-13T00:03:33.874Z,17.84
2023-03-13T00:03:56.869Z,17.93
2023-03-13T00:04:18.747Z,17.88
2023-03-13T00:04:40.370Z,17.96
2023-03-13T00:05:02.084Z,17.93
2023-03-13T00:05:24.838Z,17.82
2023-03-13T00:05:47.166Z,17.81
2023-03-13T00:06:09.595Z,17.92
2023-03-13T00:06:33.258Z,17.94
2023-03-13T00:06:56.154Z,17.92
2023-03-13T00:07:17.754Z,17.96
2023-03-13T00:07:39.875Z,17.95
2023-03-13T00:08:01.457Z,17.98
2023-03-13T00:08:25.120Z,17.97
2023-03-13T00:08:47.733Z,18.02
2023-03-13T00:09:11.002Z,18.02
2023-03-13T00:09:32.924Z,18.02
2023-03-13T00:09:54.682Z,18.01
2023-03-13T00:10:17.797Z,18.00
2023-03-13T00:10:40.224Z,17.87
2023-03-13T00:11:03.116Z,18.01
2023-03-13T00:11:24.963Z,18.02
2023-03-13T00:11:48.597Z,18.03
2023-03-13T00:12:10.198Z,18.05
2023-03-13T00:12:32.338Z,18.03
2023-03-13T00:12:54.159Z,17.98
2023-03-13T00:13:17.744Z,17.95
2023-03-13T00:13:40.417Z,17.93
2023-03-13T00:14:03.800Z,17.84
2023-03-13T00:14:25.489Z,17.91
2023-03-13T00:14:47.085Z,17.91
2023-03-13T00:15:10.506Z,17.91
2023-03-13T00:15:32.207Z,17.87
2023-03-13T00:16:00.665Z,17.81
2023-03-13T00:16:22.593Z,17.91
2023-03-13T00:16:45.318Z,17.95
2023-03-13T00:17:07.318Z,17.95
2023-03-13T00:17:29.135Z,17.94
2023-03-13T00:17:50.774Z,17.96
2023-03-13T00:18:13.422Z,17.95
2023-03-13T00:18:35.362Z,17.91
2023-03-13T00:18:58.516Z,17.91
2023-03-13T00:19:21.094Z,17.90
2023-03-13T00:19:42.987Z,17.86
2023-03-13T00:20:07.266Z,17.84
2023-03-13T00:20:29.691Z,17.86
2023-03-13T00:20:59.206Z,17.84
2023-03-13T00:21:23.238Z,17.81
2023-03-13T00:21:44.827Z,17.84
2023-03-13T00:22:07.470Z,17.87
2023-03-13T00:22:29.341Z,17.85
2023-03-13T00:22:51.205Z,17.83
2023-03-13T00:23:13.275Z,17.86
2023-03-13T00:23:37.513Z,17.85
2023-03-13T00:24:00.216Z,17.82
2023-03-13T00:24:21.924Z,17.87
2023-03-13T00:24:43.522Z,17.87
2023-03-13T00:25:05.994Z,17.89
2023-03-13T00:25:29.922Z,17.91
2023-03-13T00:25:57.163Z,17.90
2023-03-13T00:26:20.600Z,17.91
2023-03-13T00:26:43.577Z,17.90
2023-03-13T00:27:06.913Z,17.92
2023-03-13T00:27:32.027Z,17.87
2023-03-13T00:27:53.694Z,17.86
2023-03-13T00:28:16.315Z,17.90
2023-03-13T00:28:40.584Z,17.93
2023-03-13T00:29:02.249Z,17.78
2023-03-13T00:29:23.929Z,17.86
2023-03-13T00:29:45.487Z,17.87
2023-03-13T00:30:11.917Z,17.90
2023-03-13T00:30:33.777Z,17.94
2023-03-13T00:31:03.577Z,17.97
2023-03-13T00:31:28.282Z,17.98
2023-03-13T00:31:50.343Z,17.98
2023-03-13T00:32:13.253Z,18.00
2023-03-13T00:32:40.234Z,18.01
2023-03-13T00:33:03.198Z,18.01
2023-03-13T00:33:25.276Z,18.02
2023-03-13T00:33:48.768Z,18.04
2023-03-13T00:34:11.024Z,18.03
2023-03-13T00:34:33.601Z,18.04
2023-03-13T00:34:55.255Z,18.00
2023-03-13T00:35:17.615Z,17.93
2023-03-13T00:35:44.187Z,17.97
2023-03-13T00:36:08.722Z,17.99
2023-03-13T00:36:34.080Z,17.99
2023-03-13T00:36:56.861Z,17.98
2023-03-13T00:37:18.508Z,18.00
2023-03-13T00:37:40.226Z,17.89
2023-03-13T00:38:03.008Z,18.02
2023-03-13T00:38:24.698Z,17.95
2023-03-13T00:38:46.940Z,17.96
2023-03-13T00:39:09.450Z,17.94
2023-03-13T00:39:32.103Z,17.94
2023-03-13T00:39:56.443Z,17.93
2023-03-13T00:40:18.893Z,17.89
2023-03-13T00:40:40.937Z,17.98
2023-03-13T00:41:04.409Z,18.02
2023-03-13T00:41:28.911Z,18.07
2023-03-13T00:41:50.840Z,18.03
2023-03-13T00:42:13.065Z,18.14
2023-03-13T00:42:34.918Z,18.13
2023-03-13T00:42:56.614Z,18.20
2023-03-13T00:43:19.142Z,18.22
2023-03-13T00:43:43.850Z,18.20
2023-03-13T00:44:06.242Z,18.02
2023-03-13T00:44:29.164Z,17.78
2023-03-13T00:44:50.770Z,17.70
2023-03-13T00:45:12.359Z,17.86
2023-03-13T00:45:34.841Z,17.89
2023-03-13T00:45:56.636Z,17.90
2023-03-13T00:46:21.878Z,17.91
2023-03-13T00:46:43.566Z,17.95
2023-03-13T00:47:07.041Z,17.99
2023-03-13T00:47:28.796Z,18.01
2023-03-13T00:47:50.529Z,17.78
2023-03-13T00:48:13.060Z,18.01
2023-03-13T00:48:34.761Z,18.01
2023-03-13T00:48:56.761Z,18.07
2023-03-13T00:49:19.390Z,18.08
2023-03-13T00:49:41.048Z,18.03
2023-03-13T00:50:03.023Z,18.03
2023-03-13T00:50:24.808Z,17.97
2023-03-13T00:50:46.490Z,17.94
2023-03-13T00:51:10.161Z,17.83
2023-03-13T00:51:32.367Z,17.96
2023-03-13T00:51:54.278Z,18.00
2023-03-13T00:52:16.146Z,17.76
2023-03-13T00:52:39.853Z,18.02
2023-03-13T00:53:02.999Z,18.05
2023-03-13T00:53:25.409Z,18.02
2023-03-13T00:53:47.637Z,17.85
2023-03-13T00:54:10.442Z,18.04
2023-03-13T00:54:32.561Z,17.99
2023-03-13T00:54:54.307Z,17.81
2023-03-13T00:55:16.349Z,18.04
2023-03-13T00:55:38.347Z,17.63
2023-03-13T00:56:03.341Z,17.99
2023-03-13T00:56:25.289Z,18.00
2023-03-13T00:56:47.038Z,17.77
2023-03-13T00:57:08.899Z,17.73
2023-03-13T00:57:32.606Z,18.08
2023-03-13T00:57:54.363Z,18.08
2023-03-13T00:58:16.037Z,18.10
2023-03-13T00:58:40.091Z,18.11
2023-03-13T00:59:04.094Z,18.15
2023-03-13T00:59:26.007Z,18.03
2023-03-13T00:59:47.855Z,18.01
2023-03-13T01:00:10.751Z,18.14
2023-03-13T01:00:33.615Z,18.14
2023-03-13T01:00:55.888Z,18.08
2023-03-13T01:01:19.881Z,18.04
2023-03-13T01:01:43.766Z,18.03
2023-03-13T01:02:06.538Z,18.05
2023-03-13T01:02:28.384Z,17.98
2023-03-13T01:02:50.286Z,18.05
2023-03-13T01:03:12.125Z,17.96
2023-03-13T01:03:33.913Z,17.95
2023-03-13T01:04:00.153Z,17.93
2023-03-13T01:04:21.918Z,17.93
2023-03-13T01:04:45.166Z,18.03
2023-03-13T01:05:07.910Z,18.02
2023-03-13T01:05:29.576Z,18.00
2023-03-13T01:05:58.340Z,18.04
2023-03-13T01:06:23.681Z,18.07
2023-03-13T01:06:45.429Z,18.04
2023-03-13T01:07:07.015Z,18.15
2023-03-13T01:07:30.543Z,18.07
2023-03-13T01:07:52.347Z,18.13
2023-03-13T01:08:15.006Z,18.12
2023-03-13T01:08:37.215Z,18.13
2023-03-13T01:09:00.803Z,18.11
2023-03-13T01:09:22.676Z,18.02
2023-03-13T01:09:44.687Z,18.00
2023-03-13T01:10:07.752Z,17.99
2023-03-13T01:10:29.439Z,18.02
2023-03-13T01:10:52.168Z,17.89
2023-03-13T01:11:17.806Z,18.05
2023-03-13T01:11:41.874Z,18.02
2023-03-13T01:12:48.540Z,18.03
2023-03-13T01:13:10.687Z,17.98
2023-03-13T01:13:33.109Z,18.04
2023-03-13T01:13:55.883Z,18.07
2023-03-13T01:14:21.419Z,18.02
2023-03-13T01:14:43.674Z,18.07
2023-03-13T01:15:06.185Z,18.10
2023-03-13T01:15:27.819Z,18.12
2023-03-13T01:15:49.466Z,18.13
2023-03-13T01:16:13.954Z,18.15
2023-03-13T01:16:37.544Z,18.15
2023-03-13T01:16:59.270Z,18.16
2023-03-13T01:17:21.157Z,18.09
2023-03-13T01:17:43.918Z,18.03
2023-03-13T01:18:06.828Z,18.05
2023-03-13T01:18:28.684Z,18.10
2023-03-13T01:18:53.418Z,18.10
2023-03-13T01:19:17.531Z,18.10
2023-03-13T01:19:40.371Z,18.17
2023-03-13T01:20:01.963Z,18.20
2023-03-13T01:20:24.110Z,18.17
2023-03-13T01:20:46.794Z,18.11
2023-03-13T01:21:09.570Z,18.15
2023-03-13T01:21:31.646Z,18.17
2023-03-13T01:21:54.631Z,18.21
2023-03-13T01:22:16.242Z,18.23
2023-03-13T01:22:37.990Z,18.13
2023-03-13T01:22:59.725Z,18.25
2023-03-13T01:23:21.372Z,18.26
2023-03-13T01:23:44.177Z,18.25
2023-03-13T01:24:06.420Z,18.25
2023-03-13T01:24:28.076Z,18.27
2023-03-13T01:24:52.409Z,18.25
2023-03-13T01:25:17.326Z,18.25
2023-03-13T01:25:39.992Z,18.28
2023-03-13T01:26:04.790Z,18.28
2023-03-13T01:26:29.572Z,18.31
2023-03-13T01:26:52.376Z,18.33
2023-03-13T01:27:15.017Z,18.33
2023-03-13T01:27:37.519Z,18.37
2023-03-13T01:27:59.101Z,18.41
2023-03-13T01:28:20.777Z,18.40
2023-03-13T01:28:44.051Z,18.38
2023-03-13T01:29:05.917Z,18.39
2023-03-13T01:29:28.909Z,18.39
2023-03-13T01:29:50.498Z,18.38
2023-03-13T01:30:13.692Z,18.41
2023-03-13T01:30:35.354Z,18.41
2023-03-13T01:30:57.137Z,18.39
2023-03-13T01:31:20.966Z,18.30
2023-03-13T01:31:43.637Z,18.45
2023-03-13T01:32:06.246Z,18.37
2023-03-13T01:32:29.086Z,18.43
2023-03-13T01:32:50.788Z,18.43
2023-03-13T01:33:14.509Z,18.39
2023-03-13T01:33:37.841Z,18.47
2023-03-13T01:34:02.035Z,18.27
2023-03-13T01:34:24.089Z,18.46
2023-03-13T01:34:47.668Z,18.43
2023-03-13T01:35:09.370Z,18.44
2023-03-13T01:35:32.209Z,18.40
2023-03-13T01:36:02.487Z,18.32
2023-03-13T01:36:26.655Z,18.27
2023-03-13T01:36:50.629Z,18.24
2023-03-13T01:37:12.334Z,18.29
2023-03-13T01:37:33.989Z,18.22
2023-03-13T01:37:55.634Z,18.22
2023-03-13T01:38:18.622Z,18.20
2023-03-13T01:38:40.741Z,18.21
2023-03-13T01:39:02.348Z,17.85
2023-03-13T01:39:24.113Z,17.78
2023-03-13T01:39:46.851Z,18.03
2023-03-13T01:40:10.013Z,18.08
2023-03-13T01:40:32.002Z,18.09
2023-03-13T01:40:53.796Z,18.12
2023-03-13T01:41:16.736Z,18.15
2023-03-13T01:41:38.924Z,18.17
2023-03-13T01:42:00.710Z,18.18
2023-03-13T01:42:23.510Z,18.20
2023-03-13T01:42:52.705Z,18.19
2023-03-13T01:43:27.632Z,18.21
2023-03-13T01:43:52.837Z,18.26
2023-03-13T01:44:22.689Z,18.27
2023-03-13T01:44:53.161Z,18.31
2023-03-13T01:45:49.577Z,18.33
2023-03-13T01:46:14.199Z,18.36
2023-03-13T01:46:44.833Z,18.32
2023-03-13T01:47:27.169Z,18.33
2023-03-13T01:48:02.038Z,18.19
2023-03-13T01:48:46.091Z,18.15
2023-03-13T01:49:12.780Z,18.13
2023-03-13T01:49:55.718Z,18.15
2023-03-13T01:50:47.390Z,18.09
2023-03-13T01:51:26.951Z,18.16
2023-03-13T01:51:52.548Z,18.19
2023-03-13T01:52:18.461Z,18.07
2023-03-13T01:52:45.378Z,18.16
2023-03-13T01:53:13.115Z,18.16
2023-03-13T01:53:41.091Z,18.07
2023-03-13T01:54:06.433Z,18.10
2023-03-13T01:54:32.818Z,18.14
2023-03-13T01:54:59.812Z,18.12
2023-03-13T01:55:22.658Z,18.17
2023-03-13T01:55:47.727Z,18.20
2023-03-13T01:56:16.545Z,18.19
2023-03-13T01:56:45.600Z,18.00
2023-03-13T01:57:12.483Z,18.23
2023-03-13T01:57:38.569Z,18.16
2023-03-13T01:58:02.832Z,18.25
2023-03-13T01:58:28.224Z,18.15
2023-03-13T01:58:52.472Z,17.86
2023-03-13T01:59:17.590Z,17.95
2023-03-13T01:59:43.285Z,17.87
2023-03-13T02:00:12.472Z,17.92
2023-03-13T02:00:38.449Z,17.97
2023-03-13T02:01:05.435Z,17.69
2023-03-13T02:01:28.788Z,17.67
2023-03-13T02:01:53.154Z,17.76
2023-03-13T02:02:17.958Z,17.81
2023-03-13T02:02:42.872Z,17.89
2023-03-13T02:03:09.046Z,17.90
2023-03-13T02:03:31.316Z,17.92
2023-03-13T02:03:57.805Z,17.99
2023-03-13T02:04:22.157Z,17.99
2023-03-13T02:04:48.016Z,17.98
2023-03-13T02:05:09.975Z,18.02
2023-03-13T02:05:32.829Z,18.03
2023-03-13T02:05:56.351Z,18.01
2023-03-13T02:06:18.687Z,17.98
2023-03-13T02:06:44.104Z,17.80
2023-03-13T02:07:10.828Z,17.64
2023-03-13T02:07:40.117Z,17.73
2023-03-13T02:08:05.162Z,17.76
2023-03-13T02:08:32.615Z,17.82
2023-03-13T02:09:00.462Z,17.84
2023-03-13T02:09:25.961Z,17.81
2023-03-13T02:09:52.068Z,17.87
2023-03-13T02:10:17.879Z,17.90
2023-03-13T02:10:44.785Z,17.91
2023-03-13T02:11:16.139Z,17.89
2023-03-13T02:11:47.418Z,17.79
2023-03-13T02:12:13.894Z,17.89
2023-03-13T02:12:38.682Z,17.92
2023-03-13T02:13:02.973Z,17.82
2023-03-13T02:13:25.807Z,17.83
2023-03-13T02:13:48.704Z,17.88
2023-03-13T02:14:13.312Z,17.92
2023-03-13T02:14:38.429Z,17.86
2023-03-13T02:15:03.092Z,17.95
2023-03-13T02:15:28.517Z,17.86
2023-03-13T02:15:51.374Z,17.95
2023-03-13T02:16:13.373Z,17.93
2023-03-13T02:16:36.573Z,17.84
2023-03-13T02:17:01.867Z,17.81
2023-03-13T02:17:24.888Z,17.82
2023-03-13T02:17:48.499Z,17.81
2023-03-13T02:18:10.869Z,17.83
2023-03-13T02:18:34.856Z,17.85
2023-03-13T02:18:56.541Z,17.88
2023-03-13T02:19:24.565Z,17.93
2023-03-13T02:19:50.021Z,17.90
2023-03-13T02:20:15.002Z,17.99
2023-03-13T02:20:39.218Z,17.97
2023-03-13T02:21:09.988Z,18.05
2023-03-13T02:21:41.283Z,18.16
2023-03-13T02:22:12.507Z,18.17
2023-03-13T02:22:43.765Z,18.25
2023-03-13T02:23:13.690Z,18.27
2023-03-13T02:23:42.752Z,18.31
2023-03-13T02:24:15.093Z,18.25
2023-03-13T02:24:45.670Z,18.24
2023-03-13T02:25:17.029Z,18.33
2023-03-13T02:25:43.277Z,18.23
2023-03-13T02:26:07.632Z,18.16
2023-03-13T02:26:29.643Z,18.11
2023-03-13T02:26:52.595Z,18.09
2023-03-13T02:27:14.790Z,18.12
2023-03-13T02:27:39.682Z,18.12
2023-03-13T02:28:05.530Z,18.17
2023-03-13T02:28:33.719Z,18.04
2023-03-13T02:28:56.608Z,18.06
2023-03-13T02:29:20.236Z,18.09
2023-03-13T02:29:42.523Z,18.14
2023-03-13T02:30:06.482Z,17.81
2023-03-13T02:30:28.754Z,17.95
2023-03-13T02:30:54.171Z,17.95
2023-03-13T02:31:17.162Z,17.89
2023-03-13T02:31:39.355Z,18.04
2023-03-13T02:32:03.287Z,17.79
2023-03-13T02:32:28.084Z,17.77
2023-03-13T02:32:53.127Z,17.84
2023-03-13T02:33:16.181Z,17.79
2023-03-13T02:33:42.007Z,17.75
2023-03-13T02:34:06.337Z,17.82
2023-03-13T02:34:31.919Z,17.84
2023-03-13T02:34:58.317Z,17.74
2023-03-13T02:35:23.198Z,17.77
2023-03-13T02:35:46.399Z,17.75
2023-03-13T02:36:12.581Z,17.80
2023-03-13T02:36:35.700Z,17.67
2023-03-13T02:37:00.412Z,17.68
2023-03-13T02:37:26.431Z,17.63
2023-03-13T02:37:53.011Z,17.29
2023-03-13T02:38:20.997Z,17.26
2023-03-13T02:38:49.322Z,17.20
2023-03-13T02:39:14.353Z,17.36
2023-03-13T02:39:39.672Z,17.43
2023-03-13T02:40:05.933Z,17.54
2023-03-13T02:40:31.189Z,17.54
2023-03-13T02:40:56.434Z,17.59
2023-03-13T02:41:24.770Z,17.52
2023-03-13T02:41:48.975Z,17.60
2023-03-13T02:42:11.695Z,17.66
2023-03-13T02:42:34.510Z,17.73
2023-03-13T02:42:59.397Z,17.71
2023-03-13T02:43:30.600Z,17.51
2023-03-13T02:43:52.697Z,17.51
2023-03-13T02:44:15.600Z,17.62
2023-03-13T02:44:40.168Z,17.67
2023-03-13T02:45:02.671Z,17.66
2023-03-13T02:45:24.296Z,17.59
2023-03-13T02:46:04.759Z,17.72
2023-03-13T02:46:28.991Z,17.82
2023-03-13T02:46:52.725Z,17.81
2023-03-13T02:47:20.521Z,17.82
2023-03-13T02:47:42.382Z,17.86
2023-03-13T02:48:06.264Z,17.87
2023-03-13T02:48:33.263Z,17.87
2023-03-13T02:48:56.592Z,17.73
2023-03-13T02:49:22.880Z,17.72
2023-03-13T02:49:45.952Z,17.62
2023-03-13T02:50:08.010Z,17.59
2023-03-13T02:50:30.578Z,17.63
2023-03-13T02:50:52.355Z,17.59
2023-03-13T02:51:21.510Z,17.67
2023-03-13T02:51:46.412Z,17.74
2023-03-13T02:52:14.533Z,17.75
2023-03-13T02:52:42.735Z,17.84
2023-03-13T02:53:08.601Z,17.92
2023-03-13T02:53:30.896Z,17.85
2023-03-13T02:53:55.678Z,17.86
2023-03-13T02:54:21.122Z,17.93
2023-03-13T02:54:46.433Z,17.96
2023-03-13T02:55:15.498Z,17.97
2023-03-13T02:55:39.750Z,17.95
2023-03-13T02:56:05.294Z,18.07
2023-03-13T02:56:30.157Z,18.07
2023-03-13T02:56:56.024Z,18.08
2023-03-13T02:57:18.573Z,18.07
2023-03-13T02:57:40.322Z,17.93
2023-03-13T02:58:02.266Z,18.01
2023-03-13T02:58:31.759Z,18.06
2023-03-13T02:58:55.674Z,18.05
2023-03-13T02:59:19.950Z,17.88
2023-03-13T02:59:43.755Z,17.94
2023-03-13T03:00:07.788Z,17.95
2023-03-13T03:00:29.669Z,17.99
2023-03-13T03:00:53.852Z,17.94
2023-03-13T03:01:17.103Z,17.96
2023-03-13T03:01:40.813Z,18.02
2023-03-13T03:02:03.251Z,18.04
2023-03-13T03:02:24.972Z,17.87
2023-03-13T03:02:49.217Z,17.87
2023-03-13T03:03:10.802Z,17.87
2023-03-13T03:03:32.520Z,17.79
2023-03-13T03:03:54.418Z,17.68
2023-03-13T03:04:17.086Z,17.75
2023-03-13T03:04:38.807Z,17.81
2023-03-13T03:05:00.404Z,17.79
2023-03-13T03:05:22.824Z,17.69
2023-03-13T03:05:46.831Z,17.78
2023-03-13T03:06:08.620Z,17.71
2023-03-13T03:06:30.761Z,17.70
2023-03-13T03:06:54.115Z,17.69
2023-03-13T03:07:17.929Z,17.77
2023-03-13T03:07:41.178Z,17.82
2023-03-13T03:08:02.888Z,17.85
2023-03-13T03:08:27.844Z,17.87
2023-03-13T03:08:51.010Z,17.78
2023-03-13T03:09:16.148Z,17.77
2023-03-13T03:09:38.846Z,17.71
2023-03-13T03:10:06.449Z,17.71
2023-03-13T03:10:32.576Z,17.80
2023-03-13T03:10:54.250Z,17.78
2023-03-13T03:11:19.822Z,17.83
2023-03-13T03:11:46.475Z,17.87
2023-03-13T03:12:10.194Z,17.90
2023-03-13T03:12:31.965Z,17.82
2023-03-13T03:12:55.284Z,17.78
2023-03-13T03:13:16.993Z,17.74
2023-03-13T03:13:39.142Z,17.79
2023-03-13T03:14:01.693Z,17.79
2023-03-13T03:14:27.842Z,17.89
2023-03-13T03:14:49.639Z,17.91
2023-03-13T03:15:13.561Z,17.85
2023-03-13T03:15:39.214Z,17.75
2023-03-13T03:16:08.334Z,17.93
2023-03-13T03:16:30.166Z,17.98
2023-03-13T03:16:52.141Z,18.00
2023-03-13T03:17:13.774Z,18.04
2023-03-13T03:17:37.819Z,18.03
2023-03-13T03:17:59.426Z,18.05
2023-03-13T03:18:21.199Z,18.04
2023-03-13T03:18:43.069Z,18.09
2023-03-13T03:19:06.527Z,18.15
2023-03-13T03:19:28.303Z,18.02
2023-03-13T03:19:53.428Z,17.96
2023-03-13T03:20:15.824Z,17.97
2023-03-13T03:20:39.445Z,17.95
2023-03-13T03:21:01.254Z,17.94
2023-03-13T03:21:23.906Z,17.92
2023-03-13T03:21:46.738Z,17.92
2023-03-13T03:22:10.167Z,17.83
2023-03-13T03:22:31.772Z,17.97
2023-03-13T03:22:56.924Z,17.99
2023-03-13T03:23:18.639Z,18.02
2023-03-13T03:23:41.259Z,18.04
2023-03-13T03:24:03.763Z,18.04
2023-03-13T03:24:25.627Z,18.02
2023-03-13T03:24:47.378Z,18.07
2023-03-13T03:25:10.651Z,18.07
2023-03-13T03:25:34.523Z,17.96
2023-03-13T03:25:56.245Z,17.89
2023-03-13T03:26:19.349Z,17.91
2023-03-13T03:26:42.547Z,17.96
2023-03-13T03:27:11.042Z,18.00
2023-03-13T03:27:38.442Z,18.04
2023-03-13T03:28:03.226Z,18.05
2023-03-13T03:28:25.941Z,18.07
2023-03-13T03:28:48.739Z,18.10
2023-03-13T03:29:11.072Z,18.08
2023-03-13T03:29:33.395Z,18.10
2023-03-13T03:29:56.056Z,18.09
2023-03-13T03:30:18.256Z,18.08
2023-03-13T03:30:39.912Z,18.07
2023-03-13T03:31:04.539Z,17.87
2023-03-13T03:31:29.786Z,17.89
2023-03-13T03:31:51.737Z,17.84
2023-03-13T03:32:14.406Z,17.89
2023-03-13T03:32:37.989Z,17.83
2023-03-13T03:33:04.432Z,17.81
2023-03-13T03:33:31.904Z,17.87
2023-03-13T03:33:55.569Z,17.89
2023-03-13T03:34:17.845Z,17.92
2023-03-13T03:34:42.644Z,17.93
2023-03-13T03:35:04.993Z,17.98
2023-03-13T03:35:26.662Z,18.00
2023-03-13T03:35:48.761Z,18.03
2023-03-13T03:36:14.580Z,18.03
2023-03-13T03:36:36.239Z,17.87
2023-03-13T03:36:59.546Z,17.84
2023-03-13T03:37:23.186Z,17.89
2023-03-13T03:37:45.108Z,17.93
2023-03-13T03:38:08.089Z,17.92
2023-03-13T03:38:30.392Z,17.99
2023-03-13T03:38:52.544Z,18.00
2023-03-13T03:39:18.730Z,17.89
2023-03-13T03:39:41.454Z,17.92
2023-03-13T03:40:05.574Z,18.02
2023-03-13T03:40:28.684Z,18.10
2023-03-13T03:40:51.155Z,18.05
2023-03-13T03:41:14.903Z,18.05
2023-03-13T03:41:37.934Z,18.06
2023-03-13T03:42:00.507Z,17.99
2023-03-13T03:42:22.221Z,17.99
2023-03-13T03:42:44.774Z,17.97
2023-03-13T03:43:06.434Z,18.01
2023-03-13T03:43:28.268Z,17.88
2023-03-13T03:43:50.681Z,17.93
2023-03-13T03:44:16.846Z,17.98
2023-03-13T03:44:48.770Z,18.03
2023-03-13T03:45:11.285Z,18.02
2023-03-13T03:45:33.051Z,18.06
2023-03-13T03:45:54.811Z,18.04
2023-03-13T03:46:19.790Z,18.06
2023-03-13T03:46:41.901Z,17.98
2023-03-13T03:47:03.705Z,18.02
2023-03-13T03:47:29.714Z,18.05
2023-03-13T03:47:51.473Z,18.02
2023-03-13T03:48:13.189Z,18.01
2023-03-13T03:48:36.318Z,17.87
2023-03-13T03:49:00.001Z,17.89
2023-03-13T03:49:21.863Z,17.91
2023-03-13T03:49:44.028Z,17.99
2023-03-13T03:50:08.177Z,18.01
2023-03-13T03:50:39.683Z,18.02
2023-03-13T03:51:01.407Z,17.96
2023-03-13T03:51:24.202Z,17.89
2023-03-13T03:51:45.874Z,17.54
2023-03-13T03:52:09.646Z,17.86
2023-03-13T03:52:34.510Z,17.94
2023-03-13T03:52:56.370Z,17.90
2023-03-13T03:53:20.179Z,17.89
2023-03-13T03:53:42.885Z,17.82
2023-03-13T03:54:04.852Z,17.84
2023-03-13T03:54:27.765Z,17.89
2023-03-13T03:54:50.225Z,17.97
2023-03-13T03:55:12.652Z,18.01
2023-03-13T03:55:35.417Z,17.99
2023-03-13T03:55:57.609Z,18.12
2023-03-13T03:56:19.378Z,18.19
2023-03-13T03:56:47.102Z,18.27
2023-03-13T03:57:09.714Z,18.32
2023-03-13T03:57:33.336Z,18.33
2023-03-13T03:57:55.578Z,18.36
2023-03-13T03:58:36.511Z,18.28
2023-03-13T03:59:16.346Z,18.30
2023-03-13T03:59:58.402Z,18.30
2023-03-13T04:00:21.988Z,18.30
2023-03-13T04:00:48.456Z,18.29
2023-03-13T04:01:10.117Z,18.35
2023-03-13T04:01:32.029Z,18.29
2023-03-13T04:01:53.896Z,18.41
2023-03-13T04:02:19.541Z,18.36
2023-03-13T04:02:43.582Z,18.28
2023-03-13T04:03:06.910Z,18.30
2023-03-13T04:03:30.303Z,18.36
2023-03-13T04:03:52.009Z,18.39
2023-03-13T04:04:13.920Z,18.42
2023-03-13T04:04:38.818Z,18.42
2023-03-13T04:05:07.858Z,18.45
2023-03-13T04:05:31.043Z,18.46
2023-03-13T04:05:53.483Z,18.33
2023-03-13T04:06:17.826Z,18.39
2023-03-13T04:06:41.798Z,18.25
2023-03-13T04:07:04.415Z,18.48
2023-03-13T04:07:27.182Z,18.42
2023-03-13T04:07:50.089Z,18.40
2023-03-13T04:08:11.984Z,18.28
2023-03-13T04:08:33.874Z,18.27
2023-03-13T04:08:56.043Z,18.24
2023-03-13T04:09:21.555Z,18.31
2023-03-13T04:09:43.564Z,18.36
2023-03-13T04:10:12.353Z,18.40
2023-03-13T04:10:39.835Z,18.37
2023-03-13T04:11:02.784Z,18.32
2023-03-13T04:11:28.338Z,18.17
2023-03-13T04:11:52.481Z,18.24
2023-03-13T04:12:15.229Z,18.29
2023-03-13T04:12:40.317Z,18.34
2023-03-13T04:13:02.680Z,18.40
2023-03-13T04:13:24.561Z,18.37
2023-03-13T04:13:47.214Z,18.42
2023-03-13T04:14:09.104Z,18.45
2023-03-13T04:14:30.774Z,18.35
2023-03-13T04:14:54.394Z,18.38
2023-03-13T04:15:16.483Z,18.44
2023-03-13T04:15:38.597Z,18.50
2023-03-13T04:16:00.579Z,18.56
2023-03-13T04:16:23.710Z,18.61
2023-03-13T04:16:46.917Z,18.65
2023-03-13T04:17:11.273Z,18.59
2023-03-13T04:17:33.859Z,18.62
2023-03-13T04:17:57.234Z,18.61
2023-03-13T04:18:19.293Z,18.61
2023-03-13T04:18:41.172Z,18.58
2023-03-13T04:19:02.844Z,18.61
2023-03-13T04:19:26.239Z,18.64
2023-03-13T04:19:48.307Z,18.65
2023-03-13T04:20:13.534Z,18.66
2023-03-13T04:20:37.768Z,18.66
2023-03-13T04:21:04.019Z,18.60
2023-03-13T04:21:32.515Z,18.65
2023-03-13T04:21:58.637Z,18.58
2023-03-13T04:22:21.741Z,18.61
2023-03-13T04:22:48.535Z,18.65
2023-03-13T04:23:11.303Z,18.71
2023-03-13T04:23:33.305Z,18.63
2023-03-13T04:23:56.157Z,18.63
2023-03-13T04:24:19.541Z,18.55
2023-03-13T04:24:41.425Z,18.63
2023-03-13T04:25:03.708Z,18.66
2023-03-13T04:25:28.217Z,18.68
2023-03-13T04:25:53.737Z,18.70
2023-03-13T04:26:16.349Z,18.70
2023-03-13T04:26:38.769Z,18.74
2023-03-13T04:27:09.508Z,18.78
2023-03-13T04:27:33.574Z,18.79
2023-03-13T04:27:56.148Z,18.80
2023-03-13T04:28:21.378Z,18.83
2023-03-13T04:28:43.141Z,18.87
2023-03-13T04:29:08.199Z,18.89
2023-03-13T04:29:51.916Z,18.88
2023-03-13T04:30:26.721Z,18.90
2023-03-13T04:31:15.407Z,18.93
2023-03-13T04:32:02.280Z,18.83
2023-03-13T04:32:38.837Z,18.87
2023-03-13T04:33:20.763Z,18.89
2023-03-13T04:33:57.858Z,18.95
2023-03-13T04:34:36.441Z,18.98
2023-03-13T04:35:10.457Z,18.80
2023-03-13T04:35:48.811Z,18.86
2023-03-13T04:36:27.294Z,18.88
2023-03-13T04:37:09.254Z,18.85
2023-03-13T04:37:54.830Z,18.94
2023-03-13T04:38:36.398Z,19.01
2023-03-13T04:39:18.180Z,18.99
2023-03-13T04:40:01.118Z,19.01
2023-03-13T04:40:37.467Z,18.91
2023-03-13T04:41:22.282Z,19.00
2023-03-13T04:42:21.734Z,19.05
2023-03-13T04:43:03.720Z,19.05
2023-03-13T04:43:41.575Z,19.07
2023-03-13T04:44:23.900Z,19.12
2023-03-13T04:45:10.829Z,19.13
2023-03-13T04:45:55.484Z,18.99
2023-03-13T04:46:43.074Z,19.01
2023-03-13T04:47:16.261Z,18.98
2023-03-13T04:48:02.745Z,18.95
2023-03-13T04:48:56.677Z,18.86
2023-03-13T04:49:42.245Z,18.91
2023-03-13T04:50:21.623Z,18.97
2023-03-13T04:50:57.552Z,18.94
2023-03-13T04:51:31.805Z,18.87
2023-03-13T04:52:13.451Z,18.80
2023-03-13T04:52:56.339Z,18.78
2023-03-13T04:53:26.832Z,18.82
2023-03-13T04:54:07.846Z,18.68
2023-03-13T04:54:38.277Z,18.83
2023-03-13T04:55:06.058Z,18.86
2023-03-13T04:55:43.592Z,18.91
2023-03-13T04:56:41.655Z,18.92
2023-03-13T04:57:20.721Z,18.98
2023-03-13T04:57:51.557Z,19.05
2023-03-13T04:58:31.333Z,19.07
2023-03-13T04:59:22.246Z,19.07
2023-03-13T04:59:59.505Z,19.09
2023-03-13T05:00:35.363Z,19.13
2023-03-13T05:01:18.356Z,19.07
2023-03-13T05:01:58.466Z,19.06
2023-03-13T05:02:34.242Z,19.09
2023-03-13T05:03:06.848Z,19.10
2023-03-13T05:03:49.269Z,19.12
2023-03-13T05:04:35.088Z,19.15
2023-03-13T05:05:19.335Z,19.15
2023-03-13T05:05:53.820Z,19.17
2023-03-13T05:06:50.139Z,19.16
2023-03-13T05:07:26.783Z,19.18
2023-03-13T05:08:02.199Z,19.23
2023-03-13T05:08:42.696Z,19.15
2023-03-13T05:09:11.448Z,19.14
2023-03-13T05:09:46.572Z,19.15
2023-03-13T05:10:28.534Z,19.17
2023-03-13T05:11:30.083Z,19.16
2023-03-13T05:12:20.963Z,19.15
2023-03-13T05:12:52.291Z,19.13
2023-03-13T05:13:25.157Z,19.13
2023-03-13T05:14:13.029Z,19.16
2023-03-13T05:14:54.670Z,19.10
2023-03-13T05:15:36.675Z,19.13
2023-03-13T05:16:18.734Z,19.11
2023-03-13T05:17:00.013Z,19.09
2023-03-13T05:17:41.675Z,19.11
2023-03-13T05:18:05.921Z,19.12
2023-03-13T05:18:54.727Z,19.14
2023-03-13T05:19:42.538Z,19.15
2023-03-13T05:20:17.749Z,19.16
2023-03-13T05:21:02.277Z,19.18
2023-03-13T05:21:51.073Z,19.18
2023-03-13T05:22:31.374Z,19.19
2023-03-13T05:23:23.248Z,19.22
2023-03-13T05:24:20.370Z,19.24
2023-03-13T05:25:00.524Z,19.27
2023-03-13T05:25:47.485Z,19.25
2023-03-13T05:26:39.185Z,19.17
2023-03-13T05:27:19.265Z,19.15
2023-03-13T05:27:50.998Z,19.16
2023-03-13T05:28:38.068Z,19.16
2023-03-13T05:29:14.594Z,19.17
2023-03-13T05:29:55.270Z,19.17
2023-03-13T05:30:38.202Z,19.13
2023-03-13T05:31:09.079Z,19.05
2023-03-13T05:31:57.171Z,18.97
2023-03-13T05:32:46.309Z,19.11
2023-03-13T05:33:15.628Z,19.16
2023-03-13T05:34:01.199Z,19.12
2023-03-13T05:34:44.216Z,19.15
2023-03-13T05:35:26.431Z,19.18
2023-03-13T05:36:08.952Z,19.18
2023-03-13T05:36:33.374Z,19.19
2023-03-13T05:37:15.392Z,19.22
2023-03-13T05:37:41.608Z,19.23
2023-03-13T05:38:22.858Z,19.27
2023-03-13T05:39:06.355Z,19.26